sensor_id;sensor_type;location;lat;lon;timestamp;temperature;humidity
7194;DHT22;3638;48.820;9.244;2023-01-23T00:02:17;0.70;99.90
7194;DHT22;3638;48.820;9.244;2023-01-23T00:04:44;0.60;99.90
7194;DHT22;3638;48.820;9.244;2023-01-23T00:07:13;0.60;99.90
7194;DHT22;3638;48.820;9.244;2023-01-23T00:09:39;0.60;99.90
7194;DHT22;3638;48.820;9.244;2023-01-23T00:12:06;0.60;99.90
7194;DHT22;3638;48.820;9.244;2023-01-23T00:14:33;0.50;99.90
7194;DHT22;3638;48.820;9.244;2023-01-23T00:17:00;0.50;99.90
7194;DHT22;3638;48.820;9.244;2023-01-23T00:19:27;0.40;99.90
7194;DHT22;3638;48.820;9.244;2023-01-23T00:21:54;0.40;99.90
7194;DHT22;3638;48.820;9.244;2023-01-23T00:24:22;0.50;99.90
7194;DHT22;3638;48.820;9.244;2023-01-23T00:26:49;0.50;99.90
7194;DHT22;3638;48.820;9.244;2023-01-23T00:29:16;0.50;99.90
7194;DHT22;3638;48.820;9.244;2023-01-23T00:31:43;0.50;99.90
7194;DHT22;3638;48.820;9.244;2023-01-23T00:34:12;0.60;99.90
7194;DHT22;3638;48.820;9.244;2023-01-23T00:36:41;0.60;99.90
7194;DHT22;3638;48.820;9.244;2023-01-23T00:39:14;0.60;99.90
7194;DHT22;3638;48.820;9.244;2023-01-23T00:41:44;0.50;99.90
7194;DHT22;3638;48.820;9.244;2023-01-23T00:44:11;0.50;99.90
7194;DHT22;3638;48.820;9.244;2023-01-23T00:46:38;0.50;99.90
7194;DHT22;3638;48.820;9.244;2023-01-23T00:49:05;0.50;99.90
7194;DHT22;3638;48.820;9.244;2023-01-23T00:51:32;0.50;99.90
7194;DHT22;3638;48.820;9.244;2023-01-23T00:53:59;0.50;99.90
7194;DHT22;3638;48.820;9.244;2023-01-23T00:56:26;0.40;99.90
7194;DHT22;3638;48.820;9.244;2023-01-23T00:58:54;0.50;99.90
7194;DHT22;3638;48.820;9.244;2023-01-23T01:01:21;0.60;99.90
7194;DHT22;3638;48.820;9.244;2023-01-23T01:03:48;0.60;99.90
7194;DHT22;3638;48.820;9.244;2023-01-23T01:06:16;0.60;99.90
7194;DHT22;3638;48.820;9.244;2023-01-23T01:08:43;0.50;99.90
7194;DHT22;3638;48.820;9.244;2023-01-23T01:11:10;0.50;99.90
7194;DHT22;3638;48.820;9.244;2023-01-23T01:13:37;0.50;99.90
7194;DHT22;3638;48.820;9.244;2023-01-23T01:16:06;0.50;99.90
7194;DHT22;3638;48.820;9.244;2023-01-23T01:18:33;0.60;99.90
7194;DHT22;3638;48.820;9.244;2023-01-23T01:21:00;0.70;99.90
7194;DHT22;3638;48.820;9.244;2023-01-23T01:23:28;0.80;99.90
7194;DHT22;3638;48.820;9.244;2023-01-23T01:25:58;0.80;99.90
7194;DHT22;3638;48.820;9.244;2023-01-23T01:28:25;0.70;99.90
7194;DHT22;3638;48.820;9.244;2023-01-23T01:30:54;1.50;99.90
7194;DHT22;3638;48.820;9.244;2023-01-23T01:33:23;0.70;99.90
7194;DHT22;3638;48.820;9.244;2023-01-23T01:35:50;0.80;99.90
7194;DHT22;3638;48.820;9.244;2023-01-23T01:38:17;0.90;99.90
7194;DHT22;3638;48.820;9.244;2023-01-23T01:43:18;0.90;99.90
7194;DHT22;3638;48.820;9.244;2023-01-23T01:46:20;1.00;99.90
7194;DHT22;3638;48.820;9.244;2023-01-23T01:48:58;1.00;99.90
7194;DHT22;3638;48.820;9.244;2023-01-23T01:51:31;1.00;99.90
7194;DHT22;3638;48.820;9.244;2023-01-23T01:54:05;0.90;99.90
7194;DHT22;3638;48.820;9.244;2023-01-23T01:56:38;0.90;99.90
7194;DHT22;3638;48.820;9.244;2023-01-23T01:59:09;0.90;99.90
7194;DHT22;3638;48.820;9.244;2023-01-23T02:01:38;0.90;99.90
7194;DHT22;3638;48.820;9.244;2023-01-23T02:04:07;0.90;99.90
7194;DHT22;3638;48.820;9.244;2023-01-23T02:06:35;1.10;99.90
7194;DHT22;3638;48.820;9.244;2023-01-23T02:09:04;1.00;99.90
7194;DHT22;3638;48.820;9.244;2023-01-23T02:11:34;1.00;99.90
7194;DHT22;3638;48.820;9.244;2023-01-23T02:14:01;0.90;99.90
7194;DHT22;3638;48.820;9.244;2023-01-23T02:16:31;0.80;99.90
7194;DHT22;3638;48.820;9.244;2023-01-23T02:19:18;0.90;99.90
7194;DHT22;3638;48.820;9.244;2023-01-23T02:21:58;0.90;99.90
7194;DHT22;3638;48.820;9.244;2023-01-23T02:24:34;0.80;99.90
7194;DHT22;3638;48.820;9.244;2023-01-23T02:27:04;0.90;99.90
7194;DHT22;3638;48.820;9.244;2023-01-23T02:29:39;0.80;99.90
7194;DHT22;3638;48.820;9.244;2023-01-23T02:32:08;0.70;99.90
7194;DHT22;3638;48.820;9.244;2023-01-23T02:34:35;0.70;99.90
7194;DHT22;3638;48.820;9.244;2023-01-23T02:37:04;0.80;99.90
7194;DHT22;3638;48.820;9.244;2023-01-23T02:39:32;0.70;99.90
7194;DHT22;3638;48.820;9.244;2023-01-23T02:41:59;0.70;99.90
7194;DHT22;3638;48.820;9.244;2023-01-23T02:44:30;0.70;99.90
7194;DHT22;3638;48.820;9.244;2023-01-23T02:46:59;0.70;99.90
7194;DHT22;3638;48.820;9.244;2023-01-23T02:49:28;0.70;99.90
7194;DHT22;3638;48.820;9.244;2023-01-23T02:51:56;0.70;99.90
7194;DHT22;3638;48.820;9.244;2023-01-23T02:54:24;0.70;99.90
7194;DHT22;3638;48.820;9.244;2023-01-23T02:56:51;0.70;99.90
7194;DHT22;3638;48.820;9.244;2023-01-23T02:59:18;0.70;99.90
7194;DHT22;3638;48.820;9.244;2023-01-23T03:02:04;0.60;99.90
7194;DHT22;3638;48.820;9.244;2023-01-23T03:06:58;0.70;99.90
7194;DHT22;3638;48.820;9.244;2023-01-23T03:09:26;0.80;99.90
7194;DHT22;3638;48.820;9.244;2023-01-23T03:11:53;0.80;99.90
7194;DHT22;3638;48.820;9.244;2023-01-23T03:14:22;0.90;99.90
7194;DHT22;3638;48.820;9.244;2023-01-23T03:16:50;0.80;99.90
7194;DHT22;3638;48.820;9.244;2023-01-23T03:19:21;0.80;99.90
7194;DHT22;3638;48.820;9.244;2023-01-23T03:21:50;0.80;99.90
7194;DHT22;3638;48.820;9.244;2023-01-23T03:24:17;0.80;99.90
7194;DHT22;3638;48.820;9.244;2023-01-23T03:26:46;0.80;99.90
7194;DHT22;3638;48.820;9.244;2023-01-23T03:29:15;0.80;99.90
7194;DHT22;3638;48.820;9.244;2023-01-23T03:32:01;0.70;99.90
7194;DHT22;3638;48.820;9.244;2023-01-23T03:34:30;0.70;99.90
7194;DHT22;3638;48.820;9.244;2023-01-23T03:36:57;0.60;99.90
7194;DHT22;3638;48.820;9.244;2023-01-23T03:39:25;0.70;99.90
7194;DHT22;3638;48.820;9.244;2023-01-23T03:42:24;0.80;99.90
7194;DHT22;3638;48.820;9.244;2023-01-23T03:44:51;0.70;99.90
7194;DHT22;3638;48.820;9.244;2023-01-23T03:47:18;0.70;99.90
7194;DHT22;3638;48.820;9.244;2023-01-23T03:49:47;2.00;99.90
7194;DHT22;3638;48.820;9.244;2023-01-23T03:52:14;0.70;99.90
7194;DHT22;3638;48.820;9.244;2023-01-23T03:54:41;0.80;99.90
7194;DHT22;3638;48.820;9.244;2023-01-23T03:57:08;0.80;99.90
7194;DHT22;3638;48.820;9.244;2023-01-23T04:02:03;0.90;99.90
7194;DHT22;3638;48.820;9.244;2023-01-23T04:04:30;0.90;99.90
7194;DHT22;3638;48.820;9.244;2023-01-23T04:06:58;0.80;99.90
7194;DHT22;3638;48.820;9.244;2023-01-23T04:09:25;0.90;99.90
7194;DHT22;3638;48.820;9.244;2023-01-23T04:11:53;0.80;99.90
7194;DHT22;3638;48.820;9.244;2023-01-23T04:14:20;0.90;99.90
7194;DHT22;3638;48.820;9.244;2023-01-23T04:16:47;0.90;99.90
7194;DHT22;3638;48.820;9.244;2023-01-23T04:19:14;1.00;99.90
7194;DHT22;3638;48.820;9.244;2023-01-23T04:21:44;0.90;99.90
7194;DHT22;3638;48.820;9.244;2023-01-23T04:24:12;0.90;99.90
7194;DHT22;3638;48.820;9.244;2023-01-23T04:26:39;0.80;99.90
7194;DHT22;3638;48.820;9.244;2023-01-23T04:29:06;0.80;99.90
7194;DHT22;3638;48.820;9.244;2023-01-23T04:31:33;0.80;99.90
7194;DHT22;3638;48.820;9.244;2023-01-23T04:34:00;0.90;99.90
7194;DHT22;3638;48.820;9.244;2023-01-23T04:36:27;0.90;99.90
7194;DHT22;3638;48.820;9.244;2023-01-23T04:41:26;0.80;99.90
7194;DHT22;3638;48.820;9.244;2023-01-23T04:43:54;0.90;99.90
7194;DHT22;3638;48.820;9.244;2023-01-23T04:46:21;0.90;99.90
7194;DHT22;3638;48.820;9.244;2023-01-23T04:48:48;1.00;99.90
7194;DHT22;3638;48.820;9.244;2023-01-23T04:51:14;1.10;99.90
7194;DHT22;3638;48.820;9.244;2023-01-23T04:53:41;1.00;99.90
7194;DHT22;3638;48.820;9.244;2023-01-23T04:56:08;0.90;99.90
7194;DHT22;3638;48.820;9.244;2023-01-23T04:58:36;1.00;99.90
7194;DHT22;3638;48.820;9.244;2023-01-23T05:01:04;0.90;99.90
7194;DHT22;3638;48.820;9.244;2023-01-23T05:03:32;1.00;99.90
7194;DHT22;3638;48.820;9.244;2023-01-23T05:05:59;0.90;99.90
7194;DHT22;3638;48.820;9.244;2023-01-23T05:08:26;0.90;99.90
7194;DHT22;3638;48.820;9.244;2023-01-23T05:10:53;0.90;99.90
7194;DHT22;3638;48.820;9.244;2023-01-23T05:13:20;0.90;99.90
7194;DHT22;3638;48.820;9.244;2023-01-23T05:15:48;0.90;99.90
7194;DHT22;3638;48.820;9.244;2023-01-23T05:18:15;0.90;99.90
7194;DHT22;3638;48.820;9.244;2023-01-23T05:20:41;0.90;99.90
7194;DHT22;3638;48.820;9.244;2023-01-23T05:23:08;0.90;99.90
7194;DHT22;3638;48.820;9.244;2023-01-23T05:25:35;0.90;99.90
7194;DHT22;3638;48.820;9.244;2023-01-23T05:28:02;0.90;99.90
7194;DHT22;3638;48.820;9.244;2023-01-23T05:30:29;0.90;99.90
7194;DHT22;3638;48.820;9.244;2023-01-23T05:32:58;0.90;99.90
7194;DHT22;3638;48.820;9.244;2023-01-23T05:35:25;0.90;99.90
7194;DHT22;3638;48.820;9.244;2023-01-23T05:37:52;0.90;99.90
7194;DHT22;3638;48.820;9.244;2023-01-23T05:40:20;0.90;99.90
7194;DHT22;3638;48.820;9.244;2023-01-23T05:42:47;0.80;99.90
7194;DHT22;3638;48.820;9.244;2023-01-23T05:45:14;0.90;99.90
7194;DHT22;3638;48.820;9.244;2023-01-23T05:50:14;1.00;99.90
7194;DHT22;3638;48.820;9.244;2023-01-23T05:52:41;1.00;99.90
7194;DHT22;3638;48.820;9.244;2023-01-23T05:55:08;0.90;99.90
7194;DHT22;3638;48.820;9.244;2023-01-23T05:57:35;0.90;99.90
7194;DHT22;3638;48.820;9.244;2023-01-23T06:00:04;0.80;99.90
7194;DHT22;3638;48.820;9.244;2023-01-23T06:02:32;0.90;99.90
7194;DHT22;3638;48.820;9.244;2023-01-23T06:05:00;1.00;99.90
7194;DHT22;3638;48.820;9.244;2023-01-23T06:07:28;1.00;99.90
7194;DHT22;3638;48.820;9.244;2023-01-23T06:09:55;1.00;99.90
7194;DHT22;3638;48.820;9.244;2023-01-23T06:12:22;1.00;99.90
7194;DHT22;3638;48.820;9.244;2023-01-23T06:14:49;1.10;99.90
7194;DHT22;3638;48.820;9.244;2023-01-23T06:19:43;1.00;99.90
7194;DHT22;3638;48.820;9.244;2023-01-23T06:22:10;1.00;99.90
7194;DHT22;3638;48.820;9.244;2023-01-23T06:24:38;0.90;99.90
7194;DHT22;3638;48.820;9.244;2023-01-23T06:27:05;0.90;99.90
7194;DHT22;3638;48.820;9.244;2023-01-23T06:29:33;1.00;99.90
7194;DHT22;3638;48.820;9.244;2023-01-23T06:32:00;0.90;99.90
7194;DHT22;3638;48.820;9.244;2023-01-23T06:34:27;0.90;99.90
7194;DHT22;3638;48.820;9.244;2023-01-23T06:36:54;0.90;99.90
7194;DHT22;3638;48.820;9.244;2023-01-23T06:39:20;1.00;99.90
7194;DHT22;3638;48.820;9.244;2023-01-23T06:41:49;1.00;99.90
7194;DHT22;3638;48.820;9.244;2023-01-23T06:44:15;1.00;99.90
7194;DHT22;3638;48.820;9.244;2023-01-23T06:49:10;1.00;99.90
7194;DHT22;3638;48.820;9.244;2023-01-23T06:51:36;1.00;99.90
7194;DHT22;3638;48.820;9.244;2023-01-23T06:54:04;1.00;99.90
7194;DHT22;3638;48.820;9.244;2023-01-23T06:56:31;1.00;99.90
7194;DHT22;3638;48.820;9.244;2023-01-23T06:58:59;1.00;99.90
7194;DHT22;3638;48.820;9.244;2023-01-23T07:01:26;1.00;99.90
7194;DHT22;3638;48.820;9.244;2023-01-23T07:03:53;1.00;99.90
7194;DHT22;3638;48.820;9.244;2023-01-23T07:06:20;1.10;99.90
7194;DHT22;3638;48.820;9.244;2023-01-23T07:08:47;1.10;99.90
7194;DHT22;3638;48.820;9.244;2023-01-23T07:11:15;1.20;99.90
7194;DHT22;3638;48.820;9.244;2023-01-23T07:13:42;1.20;99.90
7194;DHT22;3638;48.820;9.244;2023-01-23T07:16:10;1.20;99.90
7194;DHT22;3638;48.820;9.244;2023-01-23T07:18:37;1.20;99.90
7194;DHT22;3638;48.820;9.244;2023-01-23T07:21:04;1.20;99.90
7194;DHT22;3638;48.820;9.244;2023-01-23T07:23:32;1.10;99.90
7194;DHT22;3638;48.820;9.244;2023-01-23T07:25:59;1.10;99.90
7194;DHT22;3638;48.820;9.244;2023-01-23T07:28:26;1.10;99.90
7194;DHT22;3638;48.820;9.244;2023-01-23T07:30:53;1.10;99.90
7194;DHT22;3638;48.820;9.244;2023-01-23T07:33:21;1.10;99.90
7194;DHT22;3638;48.820;9.244;2023-01-23T07:35:48;1.20;99.90
7194;DHT22;3638;48.820;9.244;2023-01-23T07:38:15;1.20;99.90
7194;DHT22;3638;48.820;9.244;2023-01-23T07:40:42;1.20;99.90
7194;DHT22;3638;48.820;9.244;2023-01-23T07:43:09;1.20;99.90
7194;DHT22;3638;48.820;9.244;2023-01-23T07:45:37;1.30;99.90
7194;DHT22;3638;48.820;9.244;2023-01-23T07:48:04;1.30;99.90
7194;DHT22;3638;48.820;9.244;2023-01-23T07:50:32;0.40;99.90
7194;DHT22;3638;48.820;9.244;2023-01-23T07:53:00;1.30;99.90
7194;DHT22;3638;48.820;9.244;2023-01-23T07:55:27;1.40;99.90
7194;DHT22;3638;48.820;9.244;2023-01-23T07:57:54;1.40;99.90
7194;DHT22;3638;48.820;9.244;2023-01-23T08:00:22;1.40;99.90
7194;DHT22;3638;48.820;9.244;2023-01-23T08:02:49;1.40;99.90
7194;DHT22;3638;48.820;9.244;2023-01-23T08:05:16;1.50;99.90
7194;DHT22;3638;48.820;9.244;2023-01-23T08:07:45;1.50;99.90
7194;DHT22;3638;48.820;9.244;2023-01-23T08:10:11;1.50;99.90
7194;DHT22;3638;48.820;9.244;2023-01-23T08:12:38;1.60;99.90
7194;DHT22;3638;48.820;9.244;2023-01-23T08:15:06;1.40;99.90
7194;DHT22;3638;48.820;9.244;2023-01-23T08:17:34;1.60;99.90
7194;DHT22;3638;48.820;9.244;2023-01-23T08:20:01;1.60;99.90
7194;DHT22;3638;48.820;9.244;2023-01-23T08:22:28;1.60;99.90
7194;DHT22;3638;48.820;9.244;2023-01-23T08:24:56;1.70;99.90
7194;DHT22;3638;48.820;9.244;2023-01-23T08:27:23;1.70;99.90
7194;DHT22;3638;48.820;9.244;2023-01-23T08:29:50;1.70;99.90
7194;DHT22;3638;48.820;9.244;2023-01-23T08:32:17;1.70;99.90
7194;DHT22;3638;48.820;9.244;2023-01-23T08:34:44;1.70;99.90
7194;DHT22;3638;48.820;9.244;2023-01-23T08:37:11;1.60;99.90
7194;DHT22;3638;48.820;9.244;2023-01-23T08:39:37;1.60;99.90
7194;DHT22;3638;48.820;9.244;2023-01-23T08:42:06;1.70;99.90
7194;DHT22;3638;48.820;9.244;2023-01-23T08:44:33;1.70;99.90
7194;DHT22;3638;48.820;9.244;2023-01-23T08:47:00;1.70;99.90
7194;DHT22;3638;48.820;9.244;2023-01-23T08:49:27;1.80;99.90
7194;DHT22;3638;48.820;9.244;2023-01-23T08:51:54;1.80;99.90
7194;DHT22;3638;48.820;9.244;2023-01-23T08:54:23;1.80;99.90
7194;DHT22;3638;48.820;9.244;2023-01-23T08:56:50;1.80;99.90
7194;DHT22;3638;48.820;9.244;2023-01-23T08:59:18;1.70;99.90
7194;DHT22;3638;48.820;9.244;2023-01-23T09:01:45;1.70;99.90
7194;DHT22;3638;48.820;9.244;2023-01-23T09:04:12;1.80;99.90
7194;DHT22;3638;48.820;9.244;2023-01-23T09:06:39;1.80;99.90
7194;DHT22;3638;48.820;9.244;2023-01-23T09:09:06;1.70;99.90
7194;DHT22;3638;48.820;9.244;2023-01-23T09:11:34;1.70;99.90
7194;DHT22;3638;48.820;9.244;2023-01-23T09:14:01;1.70;99.90
7194;DHT22;3638;48.820;9.244;2023-01-23T09:16:29;1.80;99.90
7194;DHT22;3638;48.820;9.244;2023-01-23T09:18:56;1.80;99.90
7194;DHT22;3638;48.820;9.244;2023-01-23T09:21:23;1.80;99.90
7194;DHT22;3638;48.820;9.244;2023-01-23T09:23:50;1.90;99.90
7194;DHT22;3638;48.820;9.244;2023-01-23T09:26:17;1.90;99.90
7194;DHT22;3638;48.820;9.244;2023-01-23T09:28:44;1.80;99.90
7194;DHT22;3638;48.820;9.244;2023-01-23T09:31:12;1.80;99.90
7194;DHT22;3638;48.820;9.244;2023-01-23T09:33:41;1.80;99.90
7194;DHT22;3638;48.820;9.244;2023-01-23T09:36:08;1.70;99.90
7194;DHT22;3638;48.820;9.244;2023-01-23T09:38:36;1.80;99.90
7194;DHT22;3638;48.820;9.244;2023-01-23T09:41:09;1.70;99.90
7194;DHT22;3638;48.820;9.244;2023-01-23T09:43:45;1.70;99.90
7194;DHT22;3638;48.820;9.244;2023-01-23T09:46:19;1.70;99.90
7194;DHT22;3638;48.820;9.244;2023-01-23T09:48:53;1.70;99.90
7194;DHT22;3638;48.820;9.244;2023-01-23T09:51:27;1.70;99.90
7194;DHT22;3638;48.820;9.244;2023-01-23T09:53:59;1.70;99.90
7194;DHT22;3638;48.820;9.244;2023-01-23T09:56:30;1.70;99.90
7194;DHT22;3638;48.820;9.244;2023-01-23T09:59:07;1.60;99.90
7194;DHT22;3638;48.820;9.244;2023-01-23T10:01:38;1.60;99.90
7194;DHT22;3638;48.820;9.244;2023-01-23T10:04:09;1.70;99.90
7194;DHT22;3638;48.820;9.244;2023-01-23T10:06:56;1.80;99.90
7194;DHT22;3638;48.820;9.244;2023-01-23T10:09:42;2.00;99.90
7194;DHT22;3638;48.820;9.244;2023-01-23T10:12:27;2.10;99.90
7194;DHT22;3638;48.820;9.244;2023-01-23T10:15:10;2.20;99.90
7194;DHT22;3638;48.820;9.244;2023-01-23T10:17:52;2.20;99.90
7194;DHT22;3638;48.820;9.244;2023-01-23T10:20:43;2.20;99.90
7194;DHT22;3638;48.820;9.244;2023-01-23T10:23:27;2.00;99.90
7194;DHT22;3638;48.820;9.244;2023-01-23T10:26:11;2.20;99.90
7194;DHT22;3638;48.820;9.244;2023-01-23T10:28:42;2.30;99.90
7194;DHT22;3638;48.820;9.244;2023-01-23T10:31:14;2.40;99.90
7194;DHT22;3638;48.820;9.244;2023-01-23T10:33:55;2.50;99.90
7194;DHT22;3638;48.820;9.244;2023-01-23T10:36:30;2.50;99.90
7194;DHT22;3638;48.820;9.244;2023-01-23T10:39:03;2.30;99.90
7194;DHT22;3638;48.820;9.244;2023-01-23T10:41:34;2.30;99.90
7194;DHT22;3638;48.820;9.244;2023-01-23T10:44:01;2.40;99.90
7194;DHT22;3638;48.820;9.244;2023-01-23T10:46:30;2.50;99.90
7194;DHT22;3638;48.820;9.244;2023-01-23T10:49:00;2.60;99.90
7194;DHT22;3638;48.820;9.244;2023-01-23T10:51:42;2.50;99.90
7194;DHT22;3638;48.820;9.244;2023-01-23T10:54:16;2.60;99.90
7194;DHT22;3638;48.820;9.244;2023-01-23T10:56:52;2.60;99.90
7194;DHT22;3638;48.820;9.244;2023-01-23T10:59:27;2.50;99.90
7194;DHT22;3638;48.820;9.244;2023-01-23T11:02:00;2.30;99.90
7194;DHT22;3638;48.820;9.244;2023-01-23T11:04:30;2.30;99.90
7194;DHT22;3638;48.820;9.244;2023-01-23T11:07:05;2.40;99.90
7194;DHT22;3638;48.820;9.244;2023-01-23T11:09:48;2.40;99.90
7194;DHT22;3638;48.820;9.244;2023-01-23T11:12:19;2.40;99.90
7194;DHT22;3638;48.820;9.244;2023-01-23T11:14:47;2.40;99.90
7194;DHT22;3638;48.820;9.244;2023-01-23T11:17:22;2.50;99.90
7194;DHT22;3638;48.820;9.244;2023-01-23T11:19:51;2.70;99.90
7194;DHT22;3638;48.820;9.244;2023-01-23T11:22:31;3.10;99.90
7194;DHT22;3638;48.820;9.244;2023-01-23T11:25:25;3.20;99.90
7194;DHT22;3638;48.820;9.244;2023-01-23T11:27:58;3.10;99.90
7194;DHT22;3638;48.820;9.244;2023-01-23T11:30:34;3.10;99.90
7194;DHT22;3638;48.820;9.244;2023-01-23T11:33:13;3.20;99.90
7194;DHT22;3638;48.820;9.244;2023-01-23T11:35:52;3.30;99.90
7194;DHT22;3638;48.820;9.244;2023-01-23T11:38:29;3.20;99.90
7194;DHT22;3638;48.820;9.244;2023-01-23T11:40:58;3.30;99.90
7194;DHT22;3638;48.820;9.244;2023-01-23T11:43:25;2.80;99.90
7194;DHT22;3638;48.820;9.244;2023-01-23T11:46:15;2.90;99.90
7194;DHT22;3638;48.820;9.244;2023-01-23T11:49:10;2.80;99.90
7194;DHT22;3638;48.820;9.244;2023-01-23T11:51:49;2.80;99.90
7194;DHT22;3638;48.820;9.244;2023-01-23T11:54:42;3.10;99.90
7194;DHT22;3638;48.820;9.244;2023-01-23T11:57:30;3.20;99.90
7194;DHT22;3638;48.820;9.244;2023-01-23T12:00:09;3.40;99.90
7194;DHT22;3638;48.820;9.244;2023-01-23T12:03:10;3.20;99.90
7194;DHT22;3638;48.820;9.244;2023-01-23T12:06:20;3.00;99.90
7194;DHT22;3638;48.820;9.244;2023-01-23T12:09:01;3.00;99.90
7194;DHT22;3638;48.820;9.244;2023-01-23T12:11:39;3.20;99.90
7194;DHT22;3638;48.820;9.244;2023-01-23T12:14:16;3.30;99.90
7194;DHT22;3638;48.820;9.244;2023-01-23T12:17:04;3.10;99.90
7194;DHT22;3638;48.820;9.244;2023-01-23T12:19:46;2.90;99.90
7194;DHT22;3638;48.820;9.244;2023-01-23T12:22:28;2.70;99.90
7194;DHT22;3638;48.820;9.244;2023-01-23T12:25:10;2.80;99.90
7194;DHT22;3638;48.820;9.244;2023-01-23T12:27:48;2.80;99.90
7194;DHT22;3638;48.820;9.244;2023-01-23T12:30:41;2.80;99.90
7194;DHT22;3638;48.820;9.244;2023-01-23T12:33:26;2.80;99.90
7194;DHT22;3638;48.820;9.244;2023-01-23T12:36:19;2.80;99.90
7194;DHT22;3638;48.820;9.244;2023-01-23T12:41:31;2.80;99.90
7194;DHT22;3638;48.820;9.244;2023-01-23T12:44:09;2.80;99.90
7194;DHT22;3638;48.820;9.244;2023-01-23T12:46:42;2.80;99.90
7194;DHT22;3638;48.820;9.244;2023-01-23T12:49:22;2.80;99.90
7194;DHT22;3638;48.820;9.244;2023-01-23T12:51:54;2.90;99.90
7194;DHT22;3638;48.820;9.244;2023-01-23T12:54:34;2.90;99.90
7194;DHT22;3638;48.820;9.244;2023-01-23T12:57:04;2.90;99.90
7194;DHT22;3638;48.820;9.244;2023-01-23T12:59:46;3.10;99.90
7194;DHT22;3638;48.820;9.244;2023-01-23T13:02:26;3.20;99.90
7194;DHT22;3638;48.820;9.244;2023-01-23T13:05:06;3.10;99.90
7194;DHT22;3638;48.820;9.244;2023-01-23T13:07:44;3.20;99.90
7194;DHT22;3638;48.820;9.244;2023-01-23T13:10:45;3.20;99.90
7194;DHT22;3638;48.820;9.244;2023-01-23T13:13:45;3.10;99.90
7194;DHT22;3638;48.820;9.244;2023-01-23T13:16:15;3.20;99.90
7194;DHT22;3638;48.820;9.244;2023-01-23T13:18:52;3.10;99.90
7194;DHT22;3638;48.820;9.244;2023-01-23T13:21:38;3.20;99.90
7194;DHT22;3638;48.820;9.244;2023-01-23T13:24:39;3.30;99.90
7194;DHT22;3638;48.820;9.244;2023-01-23T13:27:44;3.30;99.90
7194;DHT22;3638;48.820;9.244;2023-01-23T13:30:38;3.30;99.90
7194;DHT22;3638;48.820;9.244;2023-01-23T13:36:22;3.30;99.90
7194;DHT22;3638;48.820;9.244;2023-01-23T13:38:59;3.20;99.90
7194;DHT22;3638;48.820;9.244;2023-01-23T13:41:29;3.30;99.90
7194;DHT22;3638;48.820;9.244;2023-01-23T13:44:13;3.20;99.90
7194;DHT22;3638;48.820;9.244;2023-01-23T13:46:51;3.10;99.90
7194;DHT22;3638;48.820;9.244;2023-01-23T13:49:35;3.10;99.90
7194;DHT22;3638;48.820;9.244;2023-01-23T13:52:17;3.20;99.90
7194;DHT22;3638;48.820;9.244;2023-01-23T13:55:13;3.30;99.90
7194;DHT22;3638;48.820;9.244;2023-01-23T13:58:01;3.30;99.90
7194;DHT22;3638;48.820;9.244;2023-01-23T14:00:29;3.30;99.90
7194;DHT22;3638;48.820;9.244;2023-01-23T14:03:13;3.50;99.90
7194;DHT22;3638;48.820;9.244;2023-01-23T14:06:07;3.60;99.90
7194;DHT22;3638;48.820;9.244;2023-01-23T14:08:45;3.60;99.90
7194;DHT22;3638;48.820;9.244;2023-01-23T14:11:14;3.50;99.90
7194;DHT22;3638;48.820;9.244;2023-01-23T14:13:49;3.50;99.90
7194;DHT22;3638;48.820;9.244;2023-01-23T14:16:37;5.40;99.90
7194;DHT22;3638;48.820;9.244;2023-01-23T14:19:13;3.60;99.90
7194;DHT22;3638;48.820;9.244;2023-01-23T14:21:51;3.50;99.90
7194;DHT22;3638;48.820;9.244;2023-01-23T14:24:21;3.50;99.90
7194;DHT22;3638;48.820;9.244;2023-01-23T14:26:51;3.50;99.90
7194;DHT22;3638;48.820;9.244;2023-01-23T14:29:20;3.50;99.90
7194;DHT22;3638;48.820;9.244;2023-01-23T14:31:48;3.60;99.90
7194;DHT22;3638;48.820;9.244;2023-01-23T14:34:17;3.40;99.90
7194;DHT22;3638;48.820;9.244;2023-01-23T14:36:49;3.30;99.90
7194;DHT22;3638;48.820;9.244;2023-01-23T14:39:20;3.30;99.90
7194;DHT22;3638;48.820;9.244;2023-01-23T14:41:49;3.40;99.90
7194;DHT22;3638;48.820;9.244;2023-01-23T14:44:21;3.30;99.90
7194;DHT22;3638;48.820;9.244;2023-01-23T14:46:53;3.30;99.90
7194;DHT22;3638;48.820;9.244;2023-01-23T14:49:24;3.30;99.90
7194;DHT22;3638;48.820;9.244;2023-01-23T14:51:59;3.30;99.90
7194;DHT22;3638;48.820;9.244;2023-01-23T14:54:28;3.20;99.90
7194;DHT22;3638;48.820;9.244;2023-01-23T14:56:55;3.30;99.90
7194;DHT22;3638;48.820;9.244;2023-01-23T14:59:27;3.30;99.90
7194;DHT22;3638;48.820;9.244;2023-01-23T15:01:57;3.30;99.90
7194;DHT22;3638;48.820;9.244;2023-01-23T15:04:26;3.30;99.90
7194;DHT22;3638;48.820;9.244;2023-01-23T15:06:57;3.30;99.90
7194;DHT22;3638;48.820;9.244;2023-01-23T15:09:27;3.20;99.90
7194;DHT22;3638;48.820;9.244;2023-01-23T15:12:03;3.10;99.90
7194;DHT22;3638;48.820;9.244;2023-01-23T15:14:35;3.10;99.90
7194;DHT22;3638;48.820;9.244;2023-01-23T15:17:04;2.90;99.90
7194;DHT22;3638;48.820;9.244;2023-01-23T15:19:34;2.80;99.90
7194;DHT22;3638;48.820;9.244;2023-01-23T15:22:15;2.80;99.90
7194;DHT22;3638;48.820;9.244;2023-01-23T15:24:44;2.90;99.90
7194;DHT22;3638;48.820;9.244;2023-01-23T15:27:29;3.00;99.90
7194;DHT22;3638;48.820;9.244;2023-01-23T15:30:28;3.00;99.90
7194;DHT22;3638;48.820;9.244;2023-01-23T15:33:23;2.90;99.90
7194;DHT22;3638;48.820;9.244;2023-01-23T15:36:00;3.00;99.90
7194;DHT22;3638;48.820;9.244;2023-01-23T15:38:29;3.00;99.90
7194;DHT22;3638;48.820;9.244;2023-01-23T15:40:56;2.90;99.90
7194;DHT22;3638;48.820;9.244;2023-01-23T15:43:23;2.90;99.90
7194;DHT22;3638;48.820;9.244;2023-01-23T15:45:50;2.90;99.90
7194;DHT22;3638;48.820;9.244;2023-01-23T15:48:18;2.80;99.90
7194;DHT22;3638;48.820;9.244;2023-01-23T15:50:45;2.90;99.90
7194;DHT22;3638;48.820;9.244;2023-01-23T15:53:12;2.90;99.90
7194;DHT22;3638;48.820;9.244;2023-01-23T15:55:41;3.00;99.90
7194;DHT22;3638;48.820;9.244;2023-01-23T15:58:11;3.00;99.90
7194;DHT22;3638;48.820;9.244;2023-01-23T16:00:39;2.90;99.90
7194;DHT22;3638;48.820;9.244;2023-01-23T16:03:06;2.90;99.90
7194;DHT22;3638;48.820;9.244;2023-01-23T16:05:35;2.90;99.90
7194;DHT22;3638;48.820;9.244;2023-01-23T16:08:04;2.90;99.90
7194;DHT22;3638;48.820;9.244;2023-01-23T16:10:36;3.00;99.90
7194;DHT22;3638;48.820;9.244;2023-01-23T16:13:05;3.00;99.90
7194;DHT22;3638;48.820;9.244;2023-01-23T16:15:33;3.00;99.90
7194;DHT22;3638;48.820;9.244;2023-01-23T16:18:04;3.00;99.90
7194;DHT22;3638;48.820;9.244;2023-01-23T16:20:33;2.80;99.90
7194;DHT22;3638;48.820;9.244;2023-01-23T16:23:04;2.80;99.90
7194;DHT22;3638;48.820;9.244;2023-01-23T16:25:34;2.80;99.90
7194;DHT22;3638;48.820;9.244;2023-01-23T16:28:05;2.80;99.90
7194;DHT22;3638;48.820;9.244;2023-01-23T16:30:32;2.70;99.90
7194;DHT22;3638;48.820;9.244;2023-01-23T16:32:59;2.70;99.90
7194;DHT22;3638;48.820;9.244;2023-01-23T16:35:26;2.80;99.90
7194;DHT22;3638;48.820;9.244;2023-01-23T16:37:53;2.80;99.90
7194;DHT22;3638;48.820;9.244;2023-01-23T16:40:22;2.70;99.90
7194;DHT22;3638;48.820;9.244;2023-01-23T16:42:51;2.60;99.90
7194;DHT22;3638;48.820;9.244;2023-01-23T16:45:23;2.60;99.90
7194;DHT22;3638;48.820;9.244;2023-01-23T16:47:52;2.60;99.90
7194;DHT22;3638;48.820;9.244;2023-01-23T16:50:23;2.60;99.90
7194;DHT22;3638;48.820;9.244;2023-01-23T16:52:55;2.50;99.90
7194;DHT22;3638;48.820;9.244;2023-01-23T16:55:30;2.60;99.90
7194;DHT22;3638;48.820;9.244;2023-01-23T16:58:00;2.50;99.90
7194;DHT22;3638;48.820;9.244;2023-01-23T17:00:29;2.60;99.90
7194;DHT22;3638;48.820;9.244;2023-01-23T17:02:58;2.60;99.90
7194;DHT22;3638;48.820;9.244;2023-01-23T17:05:27;2.50;99.90
7194;DHT22;3638;48.820;9.244;2023-01-23T17:07:54;2.50;99.90
7194;DHT22;3638;48.820;9.244;2023-01-23T17:10:23;2.30;99.90